createdAt,value
2023-11-18T00:00:34.258Z,4.20
2023-11-18T00:03:02.508Z,4.10
2023-11-18T00:05:30.747Z,4.30
2023-11-18T00:07:58.876Z,4.20
2023-11-18T00:10:27.138Z,4.10
2023-11-18T00:12:56.619Z,4.10
2023-11-18T00:15:24.929Z,4.30
2023-11-18T00:17:53.886Z,4.10
2023-11-18T00:20:21.967Z,4.10
2023-11-18T00:22:50.061Z,4.10
2023-11-18T00:25:18.207Z,4.20
2023-11-18T00:27:46.385Z,4.10
2023-11-18T00:30:16.476Z,4.10
2023-11-18T00:32:44.851Z,4.10
2023-11-18T00:35:13.253Z,4.10
2023-11-18T00:37:41.897Z,4.10
2023-11-18T00:40:11.034Z,4.10
2023-11-18T00:42:39.733Z,4.10
2023-11-18T00:45:09.210Z,4.10
2023-11-18T00:47:38.720Z,4.10
2023-11-18T00:50:09.988Z,4.10
2023-11-18T00:52:39.990Z,4.00
2023-11-18T00:55:09.852Z,4.10
2023-11-18T00:57:40.247Z,4.00
2023-11-18T01:00:15.114Z,3.90
2023-11-18T01:02:48.118Z,4.00
2023-11-18T01:05:16.336Z,4.00
2023-11-18T01:07:45.380Z,4.00
2023-11-18T01:10:15.018Z,4.00
2023-11-18T01:12:45.330Z,3.90
2023-11-18T01:15:15.503Z,4.00
2023-11-18T01:17:45.598Z,4.00
2023-11-18T01:20:14.991Z,4.00
2023-11-18T01:22:44.411Z,4.00
2023-11-18T01:25:12.737Z,4.20
2023-11-18T01:27:41.121Z,3.90
2023-11-18T01:30:11.031Z,4.00
2023-11-18T01:32:41.457Z,4.00
2023-11-18T01:35:13.894Z,4.00
2023-11-18T01:37:42.243Z,4.00
2023-11-18T01:40:13.348Z,4.00
2023-11-18T01:42:44.807Z,4.00
2023-11-18T01:45:13.735Z,4.10
2023-11-18T01:47:43.073Z,3.90
2023-11-18T01:50:15.878Z,3.90
2023-11-18T01:52:47.012Z,3.90
2023-11-18T01:55:15.728Z,3.80
2023-11-18T01:57:46.338Z,3.80
2023-11-18T02:00:18.699Z,3.80
2023-11-18T02:02:47.887Z,3.80
2023-11-18T02:05:19.386Z,3.80
2023-11-18T02:07:48.479Z,3.80
2023-11-18T02:10:16.822Z,3.80
2023-11-18T02:12:52.092Z,3.80
2023-11-18T02:15:23.399Z,3.80
2023-11-18T02:17:54.429Z,3.80
2023-11-18T02:20:25.678Z,3.70
2023-11-18T02:22:54.660Z,3.80
2023-11-18T02:25:28.441Z,3.80
2023-11-18T02:27:58.196Z,3.70
2023-11-18T02:30:26.717Z,3.80
2023-11-18T02:33:04.050Z,3.80
2023-11-18T02:35:38.466Z,4.00
2023-11-18T02:38:08.907Z,3.70
2023-11-18T02:40:40.292Z,3.70
2023-11-18T02:43:10.671Z,3.70
2023-11-18T02:45:41.112Z,3.70
2023-11-18T02:48:09.462Z,3.70
2023-11-18T02:50:37.912Z,3.70
2023-11-18T02:53:06.577Z,3.80
2023-11-18T02:55:34.925Z,3.60
2023-11-18T02:58:06.539Z,3.60
2023-11-18T03:00:36.503Z,3.60
2023-11-18T03:03:05.179Z,3.60
2023-11-18T03:05:34.026Z,3.60
2023-11-18T03:08:02.110Z,3.60
2023-11-18T03:10:31.292Z,3.60
2023-11-18T03:12:59.499Z,3.60
2023-11-18T03:15:28.380Z,3.60
2023-11-18T03:17:57.777Z,3.60
2023-11-18T03:20:27.531Z,3.80
2023-11-18T03:22:55.956Z,3.60
2023-11-18T03:25:24.743Z,3.60
2023-11-18T03:27:55.760Z,3.60
2023-11-18T03:30:23.978Z,3.60
2023-11-18T03:32:52.017Z,3.60
2023-11-18T03:35:21.719Z,3.50
2023-11-18T03:37:49.871Z,3.60
2023-11-18T03:40:18.085Z,3.60
2023-11-18T03:42:47.733Z,3.50
2023-11-18T03:45:18.727Z,3.50
2023-11-18T03:47:49.068Z,3.50
2023-11-18T03:50:17.212Z,3.60
2023-11-18T03:52:46.740Z,3.40
2023-11-18T03:55:14.862Z,3.60
2023-11-18T03:57:43.663Z,3.60
2023-11-18T04:00:12.984Z,3.60
2023-11-18T04:02:41.472Z,3.60
2023-11-18T04:05:11.752Z,3.60
2023-11-18T04:07:43.347Z,3.60
2023-11-18T04:10:13.065Z,3.60
2023-11-18T04:12:41.232Z,3.60
2023-11-18T04:15:10.061Z,3.60
2023-11-18T04:17:39.459Z,3.60
2023-11-18T04:20:12.731Z,3.60
2023-11-18T04:22:42.399Z,3.60
2023-11-18T04:25:12.516Z,3.60
2023-11-18T04:27:44.040Z,3.60
2023-11-18T04:30:15.083Z,3.60
2023-11-18T04:32:44.237Z,3.60
2023-11-18T04:35:14.025Z,3.60
2023-11-18T04:37:44.550Z,3.60
2023-11-18T04:40:14.687Z,3.60
2023-11-18T04:42:43.174Z,3.50
2023-11-18T04:45:11.763Z,3.60
2023-11-18T04:47:40.738Z,3.60
2023-11-18T04:50:10.818Z,3.80
2023-11-18T04:52:39.025Z,3.60
2023-11-18T04:55:08.227Z,3.60
2023-11-18T04:57:40.285Z,3.60
2023-11-18T05:00:12.567Z,3.60
2023-11-18T05:02:41.094Z,3.60
2023-11-18T05:05:09.661Z,3.60
2023-11-18T05:07:39.363Z,3.60
2023-11-18T05:10:09.479Z,3.50
2023-11-18T05:12:39.336Z,3.60
2023-11-18T05:15:08.951Z,3.50
2023-11-18T05:17:37.879Z,3.60
2023-11-18T05:20:09.848Z,3.60
2023-11-18T05:22:38.479Z,3.60
2023-11-18T05:25:07.451Z,3.60
2023-11-18T05:27:35.578Z,3.60
2023-11-18T05:30:06.553Z,3.60
2023-11-18T05:32:34.712Z,3.60
2023-11-18T05:35:02.897Z,3.60
2023-11-18T05:37:31.086Z,3.70
2023-11-18T05:40:07.140Z,3.60
2023-11-18T05:42:40.437Z,3.60
2023-11-18T05:45:18.950Z,3.60
2023-11-18T05:47:47.721Z,3.60
2023-11-18T05:50:17.276Z,3.50
2023-11-18T05:52:45.503Z,3.50
2023-11-18T05:55:13.624Z,3.50
2023-11-18T05:57:41.757Z,3.70
2023-11-18T06:00:15.023Z,3.50
2023-11-18T06:02:43.239Z,3.50
2023-11-18T06:05:13.738Z,3.50
2023-11-18T06:07:44.468Z,3.50
2023-11-18T06:10:13.651Z,3.50
2023-11-18T06:12:42.349Z,3.50
2023-11-18T06:15:15.602Z,3.50
2023-11-18T06:17:46.883Z,3.50
2023-11-18T06:20:15.599Z,3.50
2023-11-18T06:22:43.797Z,3.50
2023-11-18T06:25:14.025Z,3.50
2023-11-18T06:27:42.429Z,3.50
2023-11-18T06:30:14.093Z,3.40
2023-11-18T06:32:42.317Z,3.40
2023-11-18T06:35:10.656Z,3.40
2023-11-18T06:37:38.926Z,3.40
2023-11-18T06:40:17.499Z,3.30
2023-11-18T06:42:48.342Z,3.40
2023-11-18T06:45:18.013Z,3.40
2023-11-18T06:47:46.893Z,3.40
2023-11-18T06:50:17.239Z,3.40
2023-11-18T06:52:47.996Z,3.40
2023-11-18T06:55:17.784Z,3.30
2023-11-18T06:57:46.085Z,3.40
2023-11-18T07:00:16.331Z,3.40
2023-11-18T07:02:45.987Z,3.30
2023-11-18T07:05:16.003Z,3.40
2023-11-18T07:07:45.107Z,3.40
2023-11-18T07:10:14.447Z,3.40
2023-11-18T07:12:42.558Z,3.40
2023-11-18T07:15:12.186Z,3.40
2023-11-18T07:17:40.201Z,3.50
2023-11-18T07:20:13.412Z,3.50
2023-11-18T07:22:42.140Z,3.50
2023-11-18T07:25:10.650Z,3.60
2023-11-18T07:27:39.138Z,3.60
2023-11-18T07:30:11.384Z,3.60
2023-11-18T07:32:39.732Z,3.60
2023-11-18T07:35:10.620Z,3.70
2023-11-18T07:37:39.086Z,3.70
2023-11-18T07:40:08.727Z,3.70
2023-11-18T07:42:36.774Z,3.80
2023-11-18T07:45:05.832Z,4.00
2023-11-18T07:47:35.289Z,3.80
2023-11-18T07:50:05.787Z,3.90
2023-11-18T07:52:36.151Z,3.90
2023-11-18T07:55:05.105Z,4.00
2023-11-18T07:57:37.283Z,4.00
2023-11-18T08:00:10.110Z,4.10
2023-11-18T08:02:38.511Z,4.10
2023-11-18T08:05:08.316Z,4.00
2023-11-18T08:07:39.326Z,4.10
2023-11-18T08:10:13.874Z,4.10
2023-11-18T08:12:42.348Z,4.20
2023-11-18T08:15:11.207Z,4.20
2023-11-18T08:17:39.709Z,4.20
2023-11-18T08:20:15.342Z,4.10
2023-11-18T08:22:46.440Z,4.00
2023-11-18T08:25:16.327Z,3.90
2023-11-18T08:27:44.808Z,3.80
2023-11-18T08:30:14.171Z,3.80
2023-11-18T08:32:45.280Z,3.80
2023-11-18T08:35:15.595Z,3.80
2023-11-18T08:37:46.506Z,3.80
2023-11-18T08:40:17.010Z,3.80
2023-11-18T08:42:50.877Z,3.80
2023-11-18T08:45:23.026Z,3.80
2023-11-18T08:47:54.383Z,3.80
2023-11-18T08:50:25.073Z,3.90
2023-11-18T08:52:59.320Z,3.80
2023-11-18T08:55:41.235Z,3.90
2023-11-18T08:58:20.726Z,4.00
2023-11-18T09:00:54.335Z,4.10
2023-11-18T09:03:37.034Z,4.20
2023-11-18T09:06:19.095Z,4.40
2023-11-18T09:08:54.469Z,4.40
2023-11-18T09:11:24.892Z,4.40
2023-11-18T09:13:55.036Z,4.40
2023-11-18T09:16:23.701Z,4.40
2023-11-18T09:18:52.599Z,4.40
2023-11-18T09:21:26.454Z,4.30
2023-11-18T09:23:57.728Z,4.30
2023-11-18T09:26:27.555Z,4.30
2023-11-18T09:28:55.994Z,4.20
2023-11-18T09:31:24.420Z,4.20
2023-11-18T09:33:54.630Z,4.30
2023-11-18T09:36:24.224Z,4.40
2023-11-18T09:38:53.783Z,4.40
2023-11-18T09:41:28.530Z,4.50
2023-11-18T09:43:58.603Z,4.60
2023-11-18T09:46:33.690Z,4.80
2023-11-18T09:49:17.056Z,5.00
2023-11-18T09:51:48.732Z,5.40
2023-11-18T09:54:26.165Z,5.60
2023-11-18T09:57:10.135Z,5.90
2023-11-18T09:59:47.672Z,6.10
2023-11-18T10:02:19.830Z,6.40
2023-11-18T10:04:51.312Z,6.50
2023-11-18T10:07:21.299Z,6.60
2023-11-18T10:09:50.594Z,6.80
2023-11-18T10:12:25.340Z,6.90
2023-11-18T10:14:54.310Z,7.00
2023-11-18T10:17:27.562Z,7.10
2023-11-18T10:19:58.410Z,7.30
2023-11-18T10:22:28.887Z,7.40
2023-11-18T10:24:57.709Z,7.50
2023-11-18T10:27:28.983Z,7.60
2023-11-18T10:30:03.663Z,7.70
2023-11-18T10:32:37.028Z,7.70
2023-11-18T10:35:07.837Z,7.80
2023-11-18T10:37:40.707Z,7.80
2023-11-18T10:40:10.590Z,7.60
2023-11-18T10:42:40.229Z,7.40
2023-11-18T10:45:14.262Z,7.40
2023-11-18T10:47:45.077Z,7.50
2023-11-18T10:50:13.966Z,7.50
2023-11-18T10:52:42.904Z,7.40
2023-11-18T10:55:14.218Z,7.20
2023-11-18T10:57:44.343Z,7.10
2023-11-18T11:00:16.453Z,6.80
2023-11-18T11:02:44.995Z,6.70
2023-11-18T11:05:20.996Z,6.70
2023-11-18T11:07:51.169Z,6.50
2023-11-18T11:10:26.726Z,6.40
2023-11-18T11:12:58.548Z,6.30
2023-11-18T11:15:42.053Z,6.30
2023-11-18T11:18:24.875Z,6.50
2023-11-18T11:21:08.847Z,6.40
2023-11-18T11:23:51.642Z,6.60
2023-11-18T11:26:31.937Z,6.90
2023-11-18T11:29:11.124Z,7.10
2023-11-18T11:31:41.535Z,7.10
2023-11-18T11:34:20.311Z,6.90
2023-11-18T11:36:52.590Z,6.80
2023-11-18T11:39:27.051Z,6.60
2023-11-18T11:41:57.887Z,6.60
2023-11-18T11:44:31.577Z,6.60
2023-11-18T11:47:01.690Z,6.60
2023-11-18T11:49:38.229Z,6.70
2023-11-18T11:52:16.281Z,6.60
2023-11-18T11:54:49.145Z,6.70
2023-11-18T11:57:17.212Z,6.70
2023-11-18T11:59:58.824Z,6.60
2023-11-18T12:02:30.817Z,6.50
2023-11-18T12:05:00.809Z,6.50
2023-11-18T12:07:29.732Z,6.50
2023-11-18T12:09:59.033Z,6.60
2023-11-18T12:12:28.651Z,6.60
2023-11-18T12:15:01.732Z,6.60
2023-11-18T12:17:33.723Z,6.60
2023-11-18T12:20:07.750Z,6.60
2023-11-18T12:23:06.666Z,6.50
2023-11-18T12:25:34.952Z,6.50
2023-11-18T12:28:10.845Z,6.50
2023-11-18T12:30:53.195Z,6.70
2023-11-18T12:33:24.309Z,7.00
2023-11-18T12:36:29.037Z,7.20
2023-11-18T12:39:33.265Z,7.20
2023-11-18T12:42:07.943Z,7.30
2023-11-18T12:44:42.521Z,7.60
2023-11-18T12:47:20.189Z,7.90
2023-11-18T12:49:55.666Z,8.00
2023-11-18T12:52:25.059Z,8.10
2023-11-18T12:55:00.165Z,8.60
2023-11-18T12:57:32.717Z,8.70
2023-11-18T13:00:02.523Z,8.80
2023-11-18T13:02:34.217Z,8.90
2023-11-18T13:05:10.187Z,8.80
2023-11-18T13:07:39.040Z,8.50
2023-11-18T13:10:08.916Z,8.30
2023-11-18T13:12:37.701Z,8.10
2023-11-18T13:15:09.533Z,7.90
2023-11-18T13:17:39.265Z,7.80
2023-11-18T13:20:15.665Z,7.70
2023-11-18T13:22:48.250Z,7.50
2023-11-18T13:25:18.636Z,7.40
2023-11-18T13:27:47.808Z,7.30
2023-11-18T13:30:18.569Z,7.40
2023-11-18T13:32:50.634Z,7.10
2023-11-18T13:35:20.713Z,7.10
2023-11-18T13:37:50.717Z,6.90
2023-11-18T13:40:19.467Z,6.70
2023-11-18T13:42:48.443Z,6.70
2023-11-18T13:45:30.959Z,6.80
2023-11-18T13:48:08.124Z,6.60
2023-11-18T13:50:38.326Z,6.60
2023-11-18T13:53:07.966Z,6.50
2023-11-18T13:55:37.418Z,6.50
2023-11-18T13:58:06.284Z,6.50
2023-11-18T14:00:34.486Z,6.40
2023-11-18T14:03:05.032Z,6.40
2023-11-18T14:05:37.002Z,6.30
2023-11-18T14:08:10.845Z,6.30
2023-11-18T14:10:42.168Z,6.20
2023-11-18T14:13:14.161Z,6.20
2023-11-18T14:15:45.333Z,6.30
2023-11-18T14:18:15.255Z,6.10
2023-11-18T14:20:44.914Z,6.00
2023-11-18T14:23:13.060Z,6.00
2023-11-18T14:25:41.193Z,5.90
2023-11-18T14:28:10.544Z,6.00
2023-11-18T14:30:39.062Z,5.90
2023-11-18T14:33:08.098Z,5.80
2023-11-18T14:35:36.543Z,5.80
2023-11-18T14:38:06.448Z,5.70
2023-11-18T14:40:34.610Z,5.70
2023-11-18T14:43:03.420Z,5.70
2023-11-18T14:45:31.468Z,5.80
2023-11-18T14:47:59.631Z,5.60
2023-11-18T14:50:28.853Z,5.60
2023-11-18T14:53:01.314Z,5.50
2023-11-18T14:55:32.516Z,5.50
2023-11-18T14:58:00.783Z,5.50
2023-11-18T15:00:33.340Z,5.50
2023-11-18T15:03:02.290Z,5.40
2023-11-18T15:05:32.228Z,5.40
2023-11-18T15:08:01.930Z,5.40
2023-11-18T15:10:31.570Z,5.40
2023-11-18T15:13:02.581Z,5.40
2023-11-18T15:15:36.605Z,5.30
2023-11-18T15:18:09.877Z,5.30
2023-11-18T15:20:39.983Z,5.30
2023-11-18T15:23:08.725Z,5.50
2023-11-18T15:25:38.337Z,5.30
2023-11-18T15:28:10.766Z,5.20
2023-11-18T15:30:39.143Z,5.20
2023-11-18T15:33:09.654Z,5.20
2023-11-18T15:35:39.069Z,5.20
2023-11-18T15:38:10.198Z,5.10
2023-11-18T15:40:39.865Z,5.10
2023-11-18T15:43:08.051Z,5.10
2023-11-18T15:45:36.683Z,5.10
2023-11-18T15:48:06.593Z,5.00
2023-11-18T15:50:38.859Z,5.00
2023-11-18T15:53:08.394Z,5.20
2023-11-18T15:55:37.405Z,5.00
2023-11-18T15:58:06.944Z,4.90
2023-11-18T16:00:35.088Z,5.00
2023-11-18T16:03:05.902Z,4.90
2023-11-18T16:05:36.041Z,5.00
2023-11-18T16:08:08.538Z,5.00
2023-11-18T16:10:38.611Z,5.00
2023-11-18T16:13:08.830Z,5.00
2023-11-18T16:15:37.255Z,4.90
2023-11-18T16:18:06.102Z,4.90
2023-11-18T16:20:35.174Z,4.90
2023-11-18T16:23:05.827Z,4.90
2023-11-18T16:25:35.899Z,5.00
2023-11-18T16:28:05.403Z,4.90
2023-11-18T16:30:35.073Z,4.80
2023-11-18T16:33:05.047Z,4.80
2023-11-18T16:35:34.068Z,4.90
2023-11-18T16:38:02.721Z,4.70
2023-11-18T16:40:31.130Z,4.80
2023-11-18T16:43:01.073Z,4.80
2023-11-18T16:45:30.056Z,4.80
2023-11-18T16:47:59.982Z,4.80
2023-11-18T16:50:28.602Z,4.60
2023-11-18T16:52:57.925Z,4.70
2023-11-18T16:55:26.915Z,4.70
2023-11-18T16:57:55.584Z,4.70
2023-11-18T17:00:24.925Z,4.60
2023-11-18T17:02:57.803Z,4.60
2023-11-18T17:05:31.564Z,4.60
2023-11-18T17:08:01.616Z,4.60
2023-11-18T17:10:30.771Z,4.60
2023-11-18T17:13:01.999Z,4.60
2023-11-18T17:15:30.769Z,4.70
2023-11-18T17:18:03.092Z,4.60
2023-11-18T17:20:34.317Z,4.60
2023-11-18T17:23:03.997Z,4.60
2023-11-18T17:25:32.571Z,4.60
2023-11-18T17:28:01.472Z,4.60
2023-11-18T17:30:35.739Z,4.60
2023-11-18T17:33:04.072Z,4.60
2023-11-18T17:35:33.976Z,4.50
2023-11-18T17:38:02.133Z,4.50
2023-11-18T17:40:30.383Z,4.30
2023-11-18T17:42:58.556Z,4.40
2023-11-18T17:45:26.613Z,4.20
2023-11-18T17:47:54.769Z,4.20
2023-11-18T17:50:23.784Z,4.10
2023-11-18T17:52:53.387Z,4.10
2023-11-18T17:55:21.649Z,4.30
2023-11-18T17:57:49.885Z,4.00
2023-11-18T18:00:24.435Z,4.10
2023-11-18T18:02:54.418Z,4.10
2023-11-18T18:05:24.537Z,4.00
2023-11-18T18:07:54.407Z,4.10
2023-11-18T18:10:28.411Z,4.10
2023-11-18T18:12:57.045Z,4.10
2023-11-18T18:15:27.560Z,4.10
2023-11-18T18:17:56.015Z,4.10
2023-11-18T18:20:24.327Z,4.20
2023-11-18T18:22:54.763Z,4.20
2023-11-18T18:25:22.845Z,4.20
2023-11-18T18:27:52.193Z,4.20
2023-11-18T18:30:20.558Z,4.30
2023-11-18T18:32:50.662Z,4.20
2023-11-18T18:35:19.976Z,4.20
2023-11-18T18:37:48.512Z,4.20
2023-11-18T18:40:20.040Z,4.30
2023-11-18T18:42:48.404Z,4.20
2023-11-18T18:45:16.657Z,4.20
2023-11-18T18:47:44.778Z,4.40
2023-11-18T18:50:14.014Z,4.20
2023-11-18T18:52:42.319Z,4.20
2023-11-18T18:55:11.785Z,4.20
2023-11-18T18:57:41.330Z,4.20
2023-11-18T19:00:13.313Z,4.10
2023-11-18T19:02:43.546Z,4.10
2023-11-18T19:05:14.626Z,4.10
2023-11-18T19:07:43.326Z,4.10
2023-11-18T19:10:12.739Z,4.10
2023-11-18T19:12:43.383Z,4.10
2023-11-18T19:15:17.299Z,4.10
2023-11-18T19:17:46.523Z,4.10
2023-11-18T19:20:15.610Z,4.10
2023-11-18T19:22:45.158Z,4.10
2023-11-18T19:25:16.841Z,4.10
2023-11-18T19:27:47.411Z,4.10
2023-11-18T19:30:15.791Z,4.10
2023-11-18T19:32:45.065Z,4.10
2023-11-18T19:35:16.088Z,4.00
2023-11-18T19:37:44.599Z,4.10
2023-11-18T19:40:13.748Z,4.10
2023-11-18T19:42:42.134Z,4.10
2023-11-18T19:45:14.184Z,4.00
2023-11-18T19:47:42.576Z,4.00
2023-11-18T19:50:13.384Z,4.00
2023-11-18T19:52:41.639Z,4.00
2023-11-18T19:55:10.276Z,3.90
2023-11-18T19:57:38.481Z,4.00
2023-11-18T20:00:09.362Z,4.00
2023-11-18T20:02:39.449Z,4.00
2023-11-18T20:05:09.974Z,4.00
2023-11-18T20:07:38.364Z,4.00
2023-11-18T20:10:09.668Z,4.00
2023-11-18T20:12:38.085Z,3.90
2023-11-18T20:15:08.585Z,3.90
2023-11-18T20:17:38.146Z,3.80
2023-11-18T20:20:09.504Z,3.80
2023-11-18T20:22:38.635Z,3.80
2023-11-18T20:25:08.947Z,3.80
2023-11-18T20:27:37.515Z,3.80
2023-11-18T20:30:06.172Z,3.80
2023-11-18T20:32:34.550Z,3.80
2023-11-18T20:35:05.626Z,3.80
2023-11-18T20:37:34.481Z,3.80
2023-11-18T20:40:03.844Z,3.70
2023-11-18T20:42:31.889Z,3.70
2023-11-18T20:44:59.938Z,3.80
2023-11-18T20:47:28.122Z,3.80
2023-11-18T20:49:56.213Z,3.70
2023-11-18T20:52:26.696Z,3.70
2023-11-18T20:54:54.771Z,3.80
2023-11-18T20:57:23.202Z,3.80
2023-11-18T20:59:51.282Z,3.80
2023-11-18T21:02:19.419Z,3.80
2023-11-18T21:04:47.629Z,3.80
2023-11-18T21:07:16.100Z,3.80
2023-11-18T21:09:44.688Z,3.80
2023-11-18T21:12:18.240Z,3.80
2023-11-18T21:14:49.511Z,3.80
2023-11-18T21:17:17.614Z,3.70
2023-11-18T21:19:45.792Z,3.70
2023-11-18T21:22:19.095Z,3.70
2023-11-18T21:24:48.574Z,3.60
2023-11-18T21:27:16.896Z,3.60
2023-11-18T21:29:45.325Z,3.40
2023-11-18T21:32:13.700Z,3.50
2023-11-18T21:34:44.048Z,3.40
2023-11-18T21:37:12.362Z,3.40
2023-11-18T21:39:40.950Z,3.30
2023-11-18T21:42:15.090Z,3.40
2023-11-18T21:44:43.387Z,3.20
2023-11-18T21:47:12.357Z,3.10
2023-11-18T21:49:40.445Z,3.00
2023-11-18T21:52:12.550Z,2.90
2023-11-18T21:54:40.712Z,2.90
2023-11-18T21:57:10.686Z,2.90
2023-11-18T21:59:40.157Z,2.80
2023-11-18T22:02:08.811Z,2.80
2023-11-18T22:04:37.702Z,2.80
2023-11-18T22:07:06.579Z,2.80
2023-11-18T22:09:34.676Z,2.80
2023-11-18T22:12:06.966Z,2.70
2023-11-18T22:14:36.758Z,2.70
2023-11-18T22:17:05.709Z,2.70
2023-11-18T22:19:33.880Z,2.70
2023-11-18T22:22:03.961Z,2.70
2023-11-18T22:24:32.105Z,2.60
2023-11-18T22:27:00.130Z,2.60
2023-11-18T22:29:29.170Z,2.60
2023-11-18T22:31:58.681Z,2.60
2023-11-18T22:34:26.710Z,2.60
2023-11-18T22:36:54.885Z,2.50
2023-11-18T22:39:24.125Z,2.50
2023-11-18T22:41:52.202Z,2.40
2023-11-18T22:44:23.695Z,2.40
2023-11-18T22:46:52.097Z,2.40
2023-11-18T22:49:21.486Z,2.40
2023-11-18T22:51:49.700Z,2.40
2023-11-18T22:54:18.964Z,2.30
2023-11-18T22:56:48.770Z,2.30
2023-11-18T22:59:18.683Z,2.30
2023-11-18T23:01:47.002Z,2.30
2023-11-18T23:04:18.828Z,2.30
2023-11-18T23:06:55.490Z,2.20
2023-11-18T23:09:25.715Z,2.20
2023-11-18T23:11:55.220Z,2.20
2023-11-18T23:14:23.384Z,2.20
2023-11-18T23:16:53.511Z,2.10
2023-11-18T23:19:21.768Z,2.10
2023-11-18T23:21:51.334Z,2.10
2023-11-18T23:24:19.435Z,2.00
2023-11-18T23:26:47.437Z,2.00
2023-11-18T23:29:15.400Z,2.10
2023-11-18T23:31:44.081Z,2.00
2023-11-18T23:34:11.210Z,2.00
2023-11-18T23:36:40.069Z,2.00
2023-11-18T23:39:09.948Z,2.00
2023-11-18T23:41:37.939Z,1.90
2023-11-18T23:44:07.570Z,1.90
2023-11-18T23:46:35.768Z,1.90
2023-11-18T23:49:03.995Z,1.80
2023-11-18T23:51:32.689Z,1.80
2023-11-18T23:54:00.673Z,1.70
2023-11-18T23:56:32.578Z,1.70
2023-11-18T23:59:00.748Z,1.70
